createdAt,value
2018-07-26T00:01:02.600Z,5.87
2018-07-26T00:03:31.979Z,6.40
2018-07-26T00:06:01.590Z,7.30
2018-07-26T00:08:30.946Z,6.57
2018-07-26T00:11:00.396Z,6.90
2018-07-26T00:13:30.484Z,7.50
2018-07-26T00:15:59.846Z,7.33
2018-07-26T00:18:29.137Z,6.83
2018-07-26T00:20:58.528Z,6.80
2018-07-26T00:23:27.904Z,6.00
2018-07-26T00:25:57.289Z,6.60
2018-07-26T00:28:26.686Z,5.90
2018-07-26T00:30:56.077Z,6.13
2018-07-26T00:33:25.428Z,6.20
2018-07-26T00:35:55.139Z,6.63
2018-07-26T00:38:24.531Z,6.10
2018-07-26T00:40:53.909Z,7.07
2018-07-26T00:43:23.293Z,6.10
2018-07-26T00:45:52.683Z,6.13
2018-07-26T00:48:22.047Z,6.10
2018-07-26T00:50:51.413Z,6.37
2018-07-26T00:53:20.783Z,6.30
2018-07-26T00:55:50.160Z,7.20
2018-07-26T00:58:19.535Z,6.83
2018-07-26T01:00:48.907Z,6.50
2018-07-26T01:03:18.308Z,7.73
2018-07-26T01:05:48.188Z,7.03
2018-07-26T01:08:17.189Z,6.87
2018-07-26T01:10:46.105Z,7.70
2018-07-26T01:13:15.363Z,7.40
2018-07-26T01:15:45.065Z,6.77
2018-07-26T01:18:14.430Z,6.67
2018-07-26T01:20:43.795Z,5.80
2018-07-26T01:23:12.742Z,5.93
2018-07-26T01:25:43.204Z,5.97
2018-07-26T01:28:12.523Z,5.83
2018-07-26T01:30:41.917Z,7.17
2018-07-26T01:33:11.265Z,6.90
2018-07-26T01:35:40.650Z,6.77
2018-07-26T01:38:10.043Z,6.00
2018-07-26T01:40:39.540Z,7.27
2018-07-26T01:43:24.933Z,6.27
2018-07-26T01:45:54.334Z,6.00
2018-07-26T01:48:23.631Z,5.87
2018-07-26T01:50:52.975Z,6.20
2018-07-26T01:53:21.963Z,6.53
2018-07-26T01:55:51.344Z,6.50
2018-07-26T01:58:20.713Z,6.40
2018-07-26T02:00:50.059Z,5.77
2018-07-26T02:03:19.530Z,6.13
2018-07-26T02:07:13.270Z,6.00
2018-07-26T02:09:42.636Z,5.87
2018-07-26T02:12:12.003Z,5.90
2018-07-26T02:14:41.435Z,6.30
2018-07-26T02:17:10.463Z,6.20
2018-07-26T02:19:39.691Z,6.37
2018-07-26T02:22:09.075Z,6.90
2018-07-26T02:24:38.424Z,6.23
2018-07-26T02:27:07.821Z,6.57
2018-07-26T02:29:37.217Z,7.33
2018-07-26T02:32:06.228Z,6.80
2018-07-26T02:34:35.472Z,6.83
2018-07-26T02:37:05.237Z,6.60
2018-07-26T02:39:34.588Z,6.80
2018-07-26T02:42:04.007Z,7.00
2018-07-26T02:44:33.440Z,7.03
2018-07-26T02:47:02.808Z,6.70
2018-07-26T02:49:32.142Z,6.67
2018-07-26T02:52:01.497Z,7.73
2018-07-26T02:54:30.851Z,7.90
2018-07-26T02:57:00.171Z,7.80
2018-07-26T02:59:29.545Z,7.87
2018-07-26T03:01:58.883Z,7.30
2018-07-26T03:04:28.258Z,7.67
2018-07-26T03:06:57.609Z,7.63
2018-07-26T03:09:26.997Z,7.00
2018-07-26T03:11:56.331Z,7.10
2018-07-26T03:14:25.753Z,7.40
2018-07-26T03:16:55.067Z,8.40
2018-07-26T03:19:24.475Z,7.57
2018-07-26T03:21:53.834Z,7.77
2018-07-26T03:24:23.171Z,8.37
2018-07-26T03:26:52.516Z,7.73
2018-07-26T03:29:22.045Z,7.50
2018-07-26T03:31:51.391Z,7.87
2018-07-26T03:34:20.740Z,8.47
2018-07-26T03:36:50.063Z,7.57
2018-07-26T03:39:19.368Z,8.03
2018-07-26T03:41:48.722Z,8.23
2018-07-26T03:44:18.062Z,7.27
2018-07-26T03:46:47.431Z,7.97
2018-07-26T03:49:16.751Z,7.63
2018-07-26T03:51:58.826Z,8.33
2018-07-26T03:54:28.152Z,8.00
2018-07-26T03:56:57.533Z,7.50
2018-07-26T03:59:27.004Z,8.70
2018-07-26T04:01:56.371Z,8.10
2018-07-26T04:04:25.693Z,8.87
2018-07-26T04:06:55.095Z,9.10
2018-07-26T04:09:24.451Z,8.70
2018-07-26T04:12:00.229Z,7.80
2018-07-26T04:14:29.583Z,8.37
2018-07-26T04:16:58.938Z,9.17
2018-07-26T04:19:28.288Z,8.30
2018-07-26T04:21:57.653Z,8.90
2018-07-26T04:24:26.961Z,8.50
2018-07-26T04:26:56.337Z,8.23
2018-07-26T04:29:25.713Z,8.90
2018-07-26T04:31:55.459Z,8.17
2018-07-26T04:34:24.771Z,8.93
2018-07-26T04:36:54.130Z,8.80
2018-07-26T04:39:23.497Z,8.90
2018-07-26T04:41:52.442Z,8.30
2018-07-26T04:44:21.682Z,9.13
2018-07-26T04:46:51.052Z,9.43
2018-07-26T04:49:20.423Z,9.37
2018-07-26T04:51:49.804Z,8.97
2018-07-26T04:54:19.187Z,9.50
2018-07-26T04:56:48.595Z,8.60
2018-07-26T04:59:18.084Z,7.97
2018-07-26T05:01:47.448Z,9.10
2018-07-26T05:04:16.794Z,8.93
2018-07-26T05:06:45.778Z,9.67
2018-07-26T05:09:15.092Z,7.87
2018-07-26T05:11:44.882Z,8.50
2018-07-26T05:14:14.291Z,9.60
2018-07-26T05:16:50.178Z,9.00
2018-07-26T05:19:19.617Z,9.20
2018-07-26T05:21:48.943Z,8.43
2018-07-26T05:24:18.284Z,9.50
2018-07-26T05:26:47.226Z,9.53
2018-07-26T05:29:16.485Z,8.97
2018-07-26T05:31:45.930Z,10.00
2018-07-26T05:34:15.267Z,8.97
2018-07-26T05:36:44.723Z,9.80
2018-07-26T05:39:14.109Z,9.77
2018-07-26T05:41:43.461Z,9.87
2018-07-26T05:44:12.826Z,11.10
2018-07-26T05:46:42.222Z,10.20
2018-07-26T05:49:11.571Z,9.60
2018-07-26T05:51:41.457Z,10.73
2018-07-26T05:54:10.808Z,9.90
2018-07-26T05:56:40.445Z,10.47
2018-07-26T05:59:09.812Z,9.37
2018-07-26T06:01:39.611Z,10.50
2018-07-26T06:04:08.963Z,9.43
2018-07-26T06:06:38.367Z,10.93
2018-07-26T06:09:09.597Z,11.17
2018-07-26T06:11:39.019Z,10.17
2018-07-26T06:14:08.484Z,11.03
2018-07-26T06:16:37.889Z,9.13
2018-07-26T06:19:07.256Z,8.93
2018-07-26T06:21:36.591Z,9.10
2018-07-26T06:24:05.987Z,8.23
2018-07-26T06:26:35.359Z,8.80
2018-07-26T06:29:04.744Z,8.50
2018-07-26T06:31:34.116Z,8.60
2018-07-26T06:34:03.474Z,8.30
2018-07-26T06:36:32.868Z,7.43
2018-07-26T06:39:02.223Z,8.07
2018-07-26T06:41:31.592Z,7.07
2018-07-26T06:44:01.193Z,7.70
2018-07-26T06:46:30.609Z,5.63
2018-07-26T06:48:59.935Z,6.10
2018-07-26T06:51:29.400Z,6.77
2018-07-26T06:53:58.736Z,6.40
2018-07-26T06:56:27.770Z,7.07
2018-07-26T06:58:56.999Z,6.77
2018-07-26T07:01:26.370Z,6.50
2018-07-26T07:03:55.688Z,6.83
2018-07-26T07:06:25.265Z,5.53
2018-07-26T07:08:54.616Z,6.03
2018-07-26T07:11:24.043Z,6.10
2018-07-26T07:13:53.365Z,5.83
2018-07-26T07:16:22.362Z,6.17
2018-07-26T07:18:51.263Z,5.20
2018-07-26T07:21:20.564Z,5.60
2018-07-26T07:23:49.927Z,5.20
2018-07-26T07:26:19.814Z,6.13
2018-07-26T07:28:49.090Z,5.40
2018-07-26T07:31:18.596Z,4.50
2018-07-26T07:33:47.959Z,5.30
2018-07-26T07:36:17.402Z,6.50
2018-07-26T07:38:46.744Z,4.90
2018-07-26T07:41:16.120Z,4.30
2018-07-26T07:43:45.463Z,4.70
2018-07-26T07:46:14.852Z,4.80
2018-07-26T07:48:43.816Z,4.87
2018-07-26T07:51:13.117Z,4.70
2018-07-26T07:53:42.483Z,5.00
2018-07-26T07:56:11.886Z,4.60
2018-07-26T07:58:41.237Z,4.80
2018-07-26T08:01:10.631Z,4.97
2018-07-26T08:03:39.606Z,5.23
2018-07-26T08:06:08.897Z,4.60
2018-07-26T08:08:38.248Z,4.60
2018-07-26T08:11:07.692Z,4.70
2018-07-26T08:13:37.054Z,4.40
2018-07-26T08:16:06.500Z,4.77
2018-07-26T08:18:35.926Z,4.80
2018-07-26T08:21:05.291Z,4.03
2018-07-26T08:23:34.683Z,4.30
2018-07-26T08:26:04.294Z,4.70
2018-07-26T08:28:33.655Z,4.17
2018-07-26T08:31:03.049Z,4.30
2018-07-26T08:33:32.440Z,4.07
2018-07-26T08:36:02.147Z,3.50
2018-07-26T08:38:31.531Z,4.10
2018-07-26T08:41:00.565Z,4.40
2018-07-26T08:43:29.864Z,3.73
2018-07-26T08:45:59.260Z,3.73
2018-07-26T08:48:28.628Z,3.37
2018-07-26T08:50:57.967Z,3.30
2018-07-26T08:53:27.332Z,3.50
2018-07-26T08:55:56.659Z,4.00
2018-07-26T08:58:26.003Z,4.20
2018-07-26T09:00:55.351Z,4.00
2018-07-26T09:03:24.702Z,3.80
2018-07-26T09:05:53.701Z,3.80
2018-07-26T09:08:22.622Z,3.63
2018-07-26T09:10:51.978Z,4.10
2018-07-26T09:13:21.352Z,3.40
2018-07-26T09:15:50.720Z,5.03
2018-07-26T09:18:20.051Z,3.50
2018-07-26T09:20:49.580Z,3.77
2018-07-26T09:23:18.979Z,3.90
2018-07-26T09:25:48.278Z,3.10
2018-07-26T09:28:17.639Z,2.80
2018-07-26T09:30:46.979Z,3.23
2018-07-26T09:33:16.394Z,3.00
2018-07-26T09:35:45.747Z,2.40
2018-07-26T09:38:15.087Z,2.70
2018-07-26T09:40:44.403Z,2.90
2018-07-26T09:43:13.757Z,3.73
2018-07-26T09:45:42.707Z,3.07
2018-07-26T09:48:11.593Z,2.70
2018-07-26T09:50:40.836Z,3.30
2018-07-26T09:53:10.187Z,3.40
2018-07-26T09:55:39.567Z,2.80
2018-07-26T09:58:08.943Z,2.20
2018-07-26T10:00:43.603Z,2.50
2018-07-26T10:03:12.971Z,3.30
2018-07-26T10:05:42.356Z,3.37
2018-07-26T10:08:11.696Z,2.70
2018-07-26T10:10:41.112Z,3.00
2018-07-26T10:13:10.497Z,2.63
2018-07-26T10:15:39.830Z,3.40
2018-07-26T10:18:09.177Z,3.10
2018-07-26T10:20:38.625Z,2.80
2018-07-26T10:23:08.007Z,3.80
2018-07-26T10:25:37.696Z,2.90
2018-07-26T10:28:07.132Z,3.20
2018-07-26T10:30:36.583Z,3.67
2018-07-26T10:33:06.272Z,4.10
2018-07-26T10:35:35.338Z,4.30
2018-07-26T10:38:04.600Z,3.90
2018-07-26T10:40:33.982Z,3.60
2018-07-26T10:43:03.358Z,3.27
2018-07-26T10:45:32.729Z,4.00
2018-07-26T10:48:02.079Z,3.50
2018-07-26T10:50:31.445Z,4.07
2018-07-26T10:53:01.152Z,3.50
2018-07-26T10:55:30.508Z,4.03
2018-07-26T10:58:00.132Z,4.20
2018-07-26T11:00:29.553Z,3.60
2018-07-26T11:02:58.563Z,3.60
2018-07-26T11:05:27.851Z,4.13
2018-07-26T11:07:57.235Z,3.77
2018-07-26T11:10:26.596Z,3.70
2018-07-26T11:12:55.936Z,4.03
2018-07-26T11:15:35.803Z,3.90
2018-07-26T11:18:05.312Z,3.80
2018-07-26T11:20:35.181Z,4.13
2018-07-26T11:23:04.186Z,4.10
2018-07-26T11:25:33.129Z,3.47
2018-07-26T11:28:02.462Z,4.30
2018-07-26T11:30:31.818Z,3.87
2018-07-26T11:33:01.190Z,3.50
2018-07-26T11:35:30.879Z,3.70
2018-07-26T11:38:00.289Z,4.50
2018-07-26T11:40:29.263Z,3.30
2018-07-26T11:42:58.543Z,3.40
2018-07-26T11:45:27.927Z,3.63
2018-07-26T11:47:57.283Z,3.30
2018-07-26T11:50:26.686Z,4.33
2018-07-26T11:52:56.017Z,3.70
2018-07-26T11:55:25.387Z,3.90
2018-07-26T11:57:54.703Z,4.07
2018-07-26T12:00:24.060Z,3.43
2018-07-26T12:02:53.388Z,3.90
2018-07-26T12:05:22.746Z,3.73
2018-07-26T12:07:52.076Z,4.10
2018-07-26T12:10:21.482Z,3.20
2018-07-26T12:12:50.841Z,3.50
2018-07-26T12:15:20.228Z,3.10
2018-07-26T12:17:49.625Z,3.53
2018-07-26T12:20:19.020Z,3.70
2018-07-26T12:22:48.397Z,3.70
2018-07-26T12:25:17.779Z,3.87
2018-07-26T12:27:46.784Z,3.60
2018-07-26T12:30:16.047Z,4.07
2018-07-26T12:32:45.419Z,4.37
2018-07-26T12:35:15.009Z,3.70
2018-07-26T12:37:44.003Z,3.63
2018-07-26T12:40:13.295Z,3.40
2018-07-26T12:42:42.658Z,3.20
2018-07-26T12:45:12.098Z,3.70
2018-07-26T12:47:41.499Z,3.40
2018-07-26T12:50:10.869Z,3.20
2018-07-26T12:52:41.959Z,2.83
2018-07-26T12:55:11.540Z,3.60
2018-07-26T12:57:40.519Z,3.83
2018-07-26T13:00:09.787Z,3.43
2018-07-26T13:02:39.153Z,3.30
2018-07-26T13:05:08.539Z,3.27
2018-07-26T13:07:37.605Z,3.60
2018-07-26T13:10:08.714Z,3.30
2018-07-26T13:12:38.371Z,3.67
2018-07-26T13:15:10.330Z,3.80
2018-07-26T13:17:40.132Z,3.80
2018-07-26T13:20:09.579Z,4.03
2018-07-26T13:22:39.255Z,4.00
2018-07-26T13:25:08.720Z,3.63
2018-07-26T13:27:38.073Z,3.47
2018-07-26T13:30:07.484Z,3.40
2018-07-26T13:32:36.897Z,3.63
2018-07-26T13:35:06.303Z,4.13
2018-07-26T13:37:35.676Z,3.63
2018-07-26T13:40:05.140Z,4.20
2018-07-26T13:42:34.487Z,4.23
2018-07-26T13:45:03.843Z,3.93
2018-07-26T13:47:33.259Z,4.07
2018-07-26T13:50:02.624Z,3.83
2018-07-26T13:52:32.043Z,4.20
2018-07-26T13:55:01.440Z,3.70
2018-07-26T13:57:30.845Z,3.90
2018-07-26T14:00:00.224Z,3.83
2018-07-26T14:02:29.562Z,4.20
2018-07-26T14:04:58.942Z,4.03
2018-07-26T14:07:28.279Z,3.83
2018-07-26T14:09:57.721Z,3.80
2018-07-26T14:12:27.091Z,3.83
2018-07-26T14:14:57.363Z,4.00
2018-07-26T14:17:26.712Z,3.77
2018-07-26T14:19:56.103Z,4.17
2018-07-26T14:22:25.508Z,4.00
2018-07-26T14:24:59.019Z,4.43
2018-07-26T14:27:28.957Z,4.47
2018-07-26T14:29:58.915Z,4.10
2018-07-26T14:32:28.283Z,4.10
2018-07-26T14:34:57.659Z,3.60
2018-07-26T14:37:27.023Z,3.90
2018-07-26T14:39:56.411Z,3.50
2018-07-26T14:42:25.396Z,4.00
2018-07-26T14:44:54.370Z,4.10
2018-07-26T14:47:23.608Z,3.47
2018-07-26T14:49:52.970Z,3.80
2018-07-26T14:52:22.300Z,4.00
2018-07-26T14:54:51.302Z,3.87
2018-07-26T14:57:20.563Z,4.33
2018-07-26T14:59:49.959Z,3.87
2018-07-26T15:02:19.319Z,4.40
2018-07-26T15:04:48.664Z,4.47
2018-07-26T15:07:18.049Z,3.70
2018-07-26T15:09:47.437Z,4.07
2018-07-26T15:12:16.835Z,3.73
2018-07-26T15:14:46.283Z,4.50
2018-07-26T15:17:15.292Z,4.13
2018-07-26T15:19:44.170Z,3.90
2018-07-26T15:22:13.059Z,4.33
2018-07-26T15:24:42.305Z,4.40
2018-07-26T15:27:11.688Z,3.63
2018-07-26T15:29:41.030Z,4.27
2018-07-26T15:32:10.393Z,4.30
2018-07-26T15:34:39.760Z,4.03
2018-07-26T15:37:09.140Z,3.80
2018-07-26T15:39:38.880Z,3.67
2018-07-26T15:42:07.885Z,3.83
2018-07-26T15:44:37.198Z,3.83
2018-07-26T15:47:06.556Z,3.50
2018-07-26T15:49:35.544Z,3.60
2018-07-26T15:52:04.444Z,3.87
2018-07-26T15:54:33.708Z,4.20
2018-07-26T15:57:03.093Z,3.73
2018-07-26T15:59:32.499Z,3.53
2018-07-26T16:02:01.888Z,3.23
2018-07-26T16:04:31.252Z,3.90
2018-07-26T16:07:00.626Z,3.73
2018-07-26T16:09:30.045Z,3.50
2018-07-26T16:11:59.424Z,4.03
2018-07-26T16:14:28.752Z,9.07
2018-07-26T16:16:57.727Z,3.87
2018-07-26T16:19:26.934Z,4.60
2018-07-26T16:21:56.420Z,4.10
2018-07-26T16:24:25.781Z,4.60
2018-07-26T16:26:55.172Z,4.40
2018-07-26T16:29:24.524Z,3.83
2018-07-26T16:31:53.539Z,3.80
2018-07-26T16:34:22.829Z,3.70
2018-07-26T16:36:52.210Z,4.07
2018-07-26T16:39:21.530Z,4.40
2018-07-26T16:41:50.863Z,3.83
2018-07-26T16:44:20.167Z,3.80
2018-07-26T16:46:49.533Z,4.50
2018-07-26T16:49:18.466Z,4.20
2018-07-26T16:51:47.739Z,4.27
2018-07-26T16:54:17.042Z,4.27
2018-07-26T16:56:46.503Z,3.60
2018-07-26T16:59:15.800Z,3.90
2018-07-26T17:01:45.143Z,4.20
2018-07-26T17:04:14.472Z,3.93
2018-07-26T17:06:43.866Z,4.17
2018-07-26T17:09:13.191Z,4.20
2018-07-26T17:11:42.624Z,5.03
2018-07-26T17:14:11.943Z,3.63
2018-07-26T17:16:41.479Z,4.27
2018-07-26T17:19:10.935Z,4.20
2018-07-26T17:21:40.670Z,4.10
2018-07-26T17:24:09.991Z,3.97
2018-07-26T17:26:39.363Z,3.63
2018-07-26T17:29:08.741Z,3.97
2018-07-26T17:31:38.065Z,3.70
2018-07-26T17:34:07.380Z,3.93
2018-07-26T17:36:36.727Z,3.93
2018-07-26T17:39:07.927Z,4.03
2018-07-26T17:41:37.347Z,3.97
2018-07-26T17:44:06.873Z,3.70
2018-07-26T17:46:35.878Z,4.30
2018-07-26T17:49:05.166Z,3.60
2018-07-26T17:51:34.552Z,4.30
2018-07-26T17:54:03.871Z,4.30
2018-07-26T17:56:32.941Z,3.80
2018-07-26T17:59:02.160Z,4.73
2018-07-26T18:01:31.484Z,3.90
2018-07-26T18:04:00.835Z,3.53
2018-07-26T18:06:30.160Z,3.60
2018-07-26T18:08:59.136Z,3.87
2018-07-26T18:11:28.390Z,4.23
2018-07-26T18:13:57.826Z,4.27
2018-07-26T18:16:26.764Z,4.70
2018-07-26T18:18:56.004Z,3.87
2018-07-26T18:21:25.361Z,4.00
2018-07-26T18:23:54.703Z,3.90
2018-07-26T18:26:24.043Z,5.03
2018-07-26T18:28:53.377Z,4.17
2018-07-26T18:31:22.764Z,4.37
2018-07-26T18:33:52.450Z,3.97
2018-07-26T18:36:21.904Z,4.30
2018-07-26T18:38:51.259Z,3.60
2018-07-26T18:41:20.598Z,4.00
2018-07-26T18:43:50.005Z,4.00
2018-07-26T18:46:19.296Z,3.97
2018-07-26T18:48:48.920Z,4.10
2018-07-26T18:51:17.871Z,4.20
2018-07-26T18:53:47.235Z,3.70
2018-07-26T18:56:16.558Z,4.47
2018-07-26T18:58:45.909Z,4.07
2018-07-26T19:01:15.251Z,4.30
2018-07-26T19:03:44.630Z,4.30
2018-07-26T19:06:13.934Z,4.33
2018-07-26T19:08:43.350Z,4.40
2018-07-26T19:11:12.330Z,4.33
2018-07-26T19:13:41.211Z,4.50
2018-07-26T19:16:10.451Z,4.90
2018-07-26T19:18:39.798Z,4.60
2018-07-26T19:21:09.176Z,4.87
2018-07-26T19:23:38.599Z,5.03
2018-07-26T19:26:08.046Z,4.67
2018-07-26T19:28:37.724Z,4.87
2018-07-26T19:31:07.076Z,5.13
2018-07-26T19:33:36.471Z,4.27
2018-07-26T19:36:06.097Z,4.53
2018-07-26T19:38:35.435Z,5.00
2018-07-26T19:41:04.808Z,4.53
2018-07-26T19:43:34.131Z,4.60
2018-07-26T19:46:03.544Z,4.90
2018-07-26T19:48:32.520Z,4.53
2018-07-26T19:51:01.477Z,4.50
2018-07-26T19:53:30.739Z,5.03
2018-07-26T19:56:00.074Z,5.10
2018-07-26T19:58:29.436Z,4.70
2018-07-26T20:00:58.774Z,4.60
2018-07-26T20:03:27.775Z,4.73
2018-07-26T20:05:57.008Z,5.00
2018-07-26T20:08:26.357Z,4.40
2018-07-26T20:10:55.725Z,5.23
2018-07-26T20:13:25.084Z,5.50
2018-07-26T20:15:54.407Z,5.53
2018-07-26T20:18:23.788Z,5.57
2018-07-26T20:20:52.767Z,5.83
2018-07-26T20:23:22.023Z,6.00
2018-07-26T20:25:51.647Z,4.77
2018-07-26T20:28:21.251Z,6.03
2018-07-26T20:30:50.565Z,5.97
2018-07-26T20:33:19.911Z,5.83
2018-07-26T20:35:49.251Z,5.90
2018-07-26T20:38:18.693Z,6.40
2018-07-26T20:40:48.144Z,6.20
2018-07-26T20:43:17.495Z,6.47
2018-07-26T20:45:46.814Z,6.50
2018-07-26T20:48:16.212Z,6.70
2018-07-26T20:50:45.600Z,6.43
2018-07-26T20:53:14.982Z,6.30
2018-07-26T20:55:45.232Z,6.33
2018-07-26T20:58:14.749Z,6.47
2018-07-26T21:00:44.111Z,7.13
2018-07-26T21:03:13.515Z,7.13
2018-07-26T21:05:42.927Z,6.50
2018-07-26T21:08:12.288Z,6.43
2018-07-26T21:10:41.784Z,7.30
2018-07-26T21:13:11.108Z,6.87
2018-07-26T21:15:40.467Z,6.53
2018-07-26T21:18:09.443Z,7.63
2018-07-26T21:20:38.762Z,6.80
2018-07-26T21:23:08.121Z,6.23
2018-07-26T21:25:37.135Z,6.80
2018-07-26T21:28:06.884Z,6.57
2018-07-26T21:30:36.207Z,6.90
2018-07-26T21:33:05.705Z,6.47
2018-07-26T21:35:35.073Z,6.50
2018-07-26T21:38:04.426Z,7.20
2018-07-26T21:40:33.491Z,6.83
2018-07-26T21:43:02.767Z,6.87
2018-07-26T21:45:32.152Z,6.20
2018-07-26T21:48:01.739Z,6.57
2018-07-26T21:50:30.754Z,6.77
2018-07-26T21:53:00.028Z,7.17
2018-07-26T21:55:29.469Z,7.10
2018-07-26T21:57:58.740Z,6.90
2018-07-26T22:00:37.916Z,7.03
2018-07-26T22:03:07.378Z,6.13
2018-07-26T22:05:36.936Z,6.70
2018-07-26T22:08:06.435Z,6.70
2018-07-26T22:10:35.487Z,7.00
2018-07-26T22:13:04.783Z,6.70
2018-07-26T22:15:34.936Z,6.47
2018-07-26T22:18:04.300Z,7.37
2018-07-26T22:20:33.704Z,7.43
2018-07-26T22:23:03.490Z,7.20
2018-07-26T22:25:32.985Z,7.17
2018-07-26T22:28:02.308Z,7.23
2018-07-26T22:30:31.741Z,6.70
2018-07-26T22:33:01.089Z,7.77
2018-07-26T22:35:30.466Z,7.90
2018-07-26T22:37:59.427Z,7.17
2018-07-26T22:40:28.796Z,7.40
2018-07-26T22:42:58.151Z,7.40
2018-07-26T22:45:27.542Z,7.63
2018-07-26T22:47:57.133Z,7.23
2018-07-26T22:50:26.524Z,7.60
2018-07-26T22:52:55.895Z,7.40
2018-07-26T22:55:25.271Z,7.33
2018-07-26T22:57:54.637Z,6.87
2018-07-26T23:00:24.023Z,7.30
2018-07-26T23:02:53.424Z,7.40
2018-07-26T23:05:22.792Z,6.50
2018-07-26T23:07:52.253Z,6.80
2018-07-26T23:10:21.890Z,6.93
2018-07-26T23:12:51.288Z,7.70
2018-07-26T23:15:20.373Z,7.17
2018-07-26T23:17:49.607Z,7.53
2018-07-26T23:20:18.973Z,8.07
2018-07-26T23:22:52.151Z,7.40
2018-07-26T23:25:21.249Z,7.27
2018-07-26T23:27:50.495Z,8.63
2018-07-26T23:30:19.850Z,7.70
2018-07-26T23:32:48.818Z,7.90
2018-07-26T23:35:18.109Z,7.63
2018-07-26T23:37:47.479Z,7.40
2018-07-26T23:40:18.239Z,7.50
2018-07-26T23:42:49.131Z,8.10
2018-07-26T23:45:19.857Z,7.37
2018-07-26T23:47:50.076Z,7.40
2018-07-26T23:50:19.738Z,7.57
2018-07-26T23:52:49.127Z,7.77
2018-07-26T23:55:18.489Z,7.50
2018-07-26T23:57:47.819Z,7.40
